Time;durP1;ratioP1;P1;durP2;ratioP2;P2;SDS_P1;SDS_P2;PMS_P1;PMS_P2;Temp;Humidity;BMP_temperature;BMP_pressure;BME280_temperature;BME280_humidity;BME280_pressure;Samples;Min_cycle;Max_cycle;Signal;HPM_P1;HPM_P2
2021/04/25 00:00:10;;;;;;;7.35;4.38;;;5.30;66.00;;;;;;4952764;28;20050;-77
2021/04/25 00:02:35;;;;;;;6.43;4.43;;;5.30;65.30;;;;;;4957353;28;20043;-75
2021/04/25 00:05:01;;;;;;;7.18;4.55;;;5.10;65.60;;;;;;4959432;28;20019;-76
2021/04/25 00:07:27;;;;;;;8.45;4.85;;;5.00;66.10;;;;;;4957051;28;20162;-75
2021/04/25 00:09:52;;;;;;;8.23;4.88;;;5.00;66.80;;;;;;4969696;28;20031;-76
2021/04/25 00:12:18;;;;;;;10.77;5.40;;;4.90;67.00;;;;;;4975550;28;20074;-76
2021/04/25 00:14:43;;;;;;;9.75;5.57;;;4.90;66.50;;;;;;4960773;28;20114;-76
2021/04/25 00:17:09;;;;;;;9.32;5.25;;;4.90;66.60;;;;;;4967389;28;20031;-76
2021/04/25 00:19:35;;;;;;;6.10;3.78;;;4.80;67.10;;;;;;4963735;28;20022;-76
2021/04/25 00:22:00;;;;;;;7.45;4.40;;;4.60;69.50;;;;;;4983029;28;20035;-75
2021/04/25 00:24:26;;;;;;;6.05;4.20;;;4.60;70.50;;;;;;4963925;28;20110;-77
2021/04/25 00:26:51;;;;;;;7.55;4.55;;;4.50;71.60;;;;;;4970156;28;20043;-76
2021/04/25 00:29:17;;;;;;;8.07;4.65;;;4.40;71.90;;;;;;4961921;28;20030;-76
2021/04/25 00:31:43;;;;;;;10.00;4.15;;;4.50;71.10;;;;;;4964605;28;20030;-75
2021/04/25 00:34:08;;;;;;;8.85;5.00;;;4.40;69.80;;;;;;4959429;28;20034;-76
2021/04/25 00:36:34;;;;;;;8.38;4.45;;;4.40;69.20;;;;;;4965947;28;20038;-76
2021/04/25 00:39:00;;;;;;;7.15;4.93;;;4.50;68.50;;;;;;4965846;28;20089;-76
2021/04/25 00:41:25;;;;;;;5.88;4.45;;;4.50;68.50;;;;;;4969142;28;20041;-76
2021/04/25 00:43:54;;;;;;;7.70;5.05;;;4.50;69.00;;;;;;4958854;28;20039;-76
2021/04/25 00:46:19;;;;;;;6.97;5.22;;;4.50;68.70;;;;;;4963568;28;20437;-76
2021/04/25 00:48:45;;;;;;;6.82;4.47;;;4.50;69.10;;;;;;4968377;28;20100;-75
2021/04/25 00:51:13;;;;;;;6.57;3.65;;;4.50;68.60;;;;;;4961362;28;20113;-76
2021/04/25 00:53:41;;;;;;;6.32;3.95;;;4.50;68.50;;;;;;4961502;28;20049;-77
2021/04/25 00:56:07;;;;;;;6.85;4.18;;;4.40;68.90;;;;;;4965876;28;20125;-75
2021/04/25 00:58:33;;;;;;;5.45;3.45;;;4.40;69.10;;;;;;4965828;28;21954;-76
2021/04/25 01:00:58;;;;;;;9.18;3.22;;;4.30;68.00;;;;;;4964977;28;20041;-76
2021/04/25 01:03:24;;;;;;;7.97;4.20;;;4.40;68.10;;;;;;4963526;28;20642;-76
2021/04/25 01:05:50;;;;;;;4.55;3.83;;;4.40;68.30;;;;;;4964132;28;20077;-75
2021/04/25 01:08:16;;;;;;;8.82;4.28;;;4.20;68.60;;;;;;4961879;28;20035;-76
2021/04/25 01:10:42;;;;;;;10.45;5.13;;;4.20;69.40;;;;;;4959347;28;20039;-76
2021/04/25 01:13:08;;;;;;;6.90;4.15;;;4.10;70.20;;;;;;4961022;28;20106;-76
2021/04/25 01:15:34;;;;;;;6.47;4.10;;;4.00;70.90;;;;;;4953432;28;20086;-76
2021/04/25 01:18:00;;;;;;;6.60;3.85;;;3.90;72.00;;;;;;4964114;28;20030;-76
2021/04/25 01:20:25;;;;;;;6.93;4.10;;;3.90;71.30;;;;;;4961448;28;20109;-76
2021/04/25 01:22:51;;;;;;;6.68;3.60;;;3.80;71.40;;;;;;4962872;28;20031;-74
2021/04/25 01:25:21;;;;;;;7.10;3.90;;;4.00;70.70;;;;;;4960787;28;20034;-76
2021/04/25 01:27:47;;;;;;;4.95;3.55;;;3.90;71.80;;;;;;4962879;28;20386;-76
2021/04/25 01:30:15;;;;;;;5.25;2.92;;;4.00;70.60;;;;;;4953391;28;20031;-76
2021/04/25 01:32:42;;;;;;;7.97;3.70;;;4.10;70.40;;;;;;4961713;28;20075;-75
2021/04/25 01:35:11;;;;;;;4.80;3.38;;;4.00;70.90;;;;;;4960336;28;20034;-76
2021/04/25 01:37:37;;;;;;;9.07;3.67;;;4.00;70.50;;;;;;4962828;28;20039;-76
2021/04/25 01:40:25;;;;;;;6.53;4.30;;;3.90;71.20;;;;;;4960964;28;20035;-75
2021/04/25 01:42:52;;;;;;;8.13;3.85;;;3.90;70.10;;;;;;4949513;28;20764;-75
2021/04/25 01:45:18;;;;;;;6.53;3.92;;;3.80;71.00;;;;;;4960787;28;20046;-76
2021/04/25 01:47:51;;;;;;;7.07;3.92;;;3.80;70.90;;;;;;4957357;28;20039;-76
2021/04/25 01:50:19;;;;;;;4.97;3.95;;;3.80;70.50;;;;;;4967625;28;20086;-76
2021/04/25 01:52:45;;;;;;;5.63;4.00;;;3.90;70.60;;;;;;4962840;28;20727;-75
2021/04/25 01:55:12;;;;;;;8.73;3.50;;;3.80;70.60;;;;;;4957832;28;20041;-76
2021/04/25 01:57:38;;;;;;;6.97;3.80;;;3.80;70.00;;;;;;4978453;28;20035;-76
2021/04/25 02:00:28;;;;;;;4.97;3.75;;;3.80;70.10;;;;;;4970697;28;20528;-76
2021/04/25 02:02:54;;;;;;;6.45;3.97;;;3.80;71.00;;;;;;4951208;28;20043;-76
2021/04/25 02:05:22;;;;;;;5.20;3.30;;;3.70;71.40;;;;;;4967516;28;20089;-77
2021/04/25 02:07:49;;;;;;;4.97;3.10;;;3.70;71.50;;;;;;4967620;28;20069;-76
2021/04/25 02:10:16;;;;;;;7.90;4.28;;;3.70;71.50;;;;;;4971559;28;20039;-75
2021/04/25 02:12:42;;;;;;;6.15;3.55;;;3.70;71.30;;;;;;4968747;28;20041;-76
2021/04/25 02:15:09;;;;;;;5.63;3.22;;;3.80;70.90;;;;;;4964193;28;20030;-76
2021/04/25 02:17:35;;;;;;;6.18;3.15;;;3.70;71.10;;;;;;4969369;28;20031;-75
2021/04/25 02:20:03;;;;;;;8.68;3.97;;;3.70;71.50;;;;;;4972933;28;20057;-77
2021/04/25 02:22:28;;;;;;;8.57;3.83;;;3.60;71.10;;;;;;4964766;28;20034;-75
2021/04/25 02:24:54;;;;;;;5.63;3.72;;;3.60;71.20;;;;;;4959288;28;20029;-76
2021/04/25 02:27:20;;;;;;;7.07;4.18;;;3.60;71.70;;;;;;4969720;28;20094;-75
2021/04/25 02:29:46;;;;;;;5.97;3.67;;;3.70;71.60;;;;;;4967924;28;20072;-75
2021/04/25 02:32:11;;;;;;;8.75;3.58;;;3.70;71.30;;;;;;4973681;28;20038;-75
2021/04/25 02:34:37;;;;;;;6.55;3.28;;;3.70;71.20;;;;;;4971355;28;20030;-76
2021/04/25 02:37:03;;;;;;;6.05;3.55;;;3.70;70.70;;;;;;4966720;28;20045;-76
2021/04/25 02:39:28;;;;;;;7.35;3.17;;;3.70;70.60;;;;;;4968330;28;20038;-76
2021/04/25 02:41:54;;;;;;;5.85;3.28;;;3.70;70.90;;;;;;4965108;28;20018;-76
2021/04/25 02:44:20;;;;;;;4.32;3.05;;;3.60;70.50;;;;;;4964007;28;20031;-76
2021/04/25 02:46:46;;;;;;;5.50;3.55;;;3.60;70.30;;;;;;4967726;28;20335;-76
2021/04/25 02:49:12;;;;;;;5.20;3.53;;;3.40;69.80;;;;;;4966516;28;20031;-77
2021/04/25 02:51:37;;;;;;;5.70;3.95;;;3.10;72.40;;;;;;4963240;28;20041;-76
2021/04/25 02:54:03;;;;;;;7.18;3.53;;;3.10;72.60;;;;;;4964526;28;20553;-75
2021/04/25 02:56:29;;;;;;;7.13;4.13;;;3.00;73.30;;;;;;4969654;28;20030;-76
2021/04/25 02:58:55;;;;;;;5.22;3.28;;;2.90;73.90;;;;;;4963241;28;20501;-76
2021/04/25 03:01:20;;;;;;;6.22;3.92;;;3.00;73.80;;;;;;4963794;28;20532;-77
2021/04/25 03:03:47;;;;;;;5.05;3.47;;;3.10;73.10;;;;;;4956134;28;20043;-76
2021/04/25 03:06:12;;;;;;;4.10;3.22;;;3.00;71.40;;;;;;4959650;28;20023;-77
2021/04/25 03:08:38;;;;;;;6.03;3.72;;;2.70;71.90;;;;;;4961854;28;20041;-77
2021/04/25 03:11:04;;;;;;;6.20;4.00;;;2.80;73.30;;;;;;4969368;28;20109;-76
2021/04/25 03:13:29;;;;;;;7.75;4.13;;;2.90;72.80;;;;;;4963989;28;20042;-76
2021/04/25 03:15:55;;;;;;;5.97;3.65;;;2.80;72.50;;;;;;4963433;28;20078;-76
2021/04/25 03:18:20;;;;;;;3.70;2.85;;;2.80;73.90;;;;;;4968314;28;20449;-75
2021/04/25 03:20:46;;;;;;;5.00;3.45;;;2.80;73.30;;;;;;4971419;28;20034;-76
2021/04/25 03:23:12;;;;;;;9.75;4.45;;;2.80;73.50;;;;;;4972110;28;20042;-77
2021/04/25 03:25:38;;;;;;;6.82;4.93;;;2.90;73.70;;;;;;4967216;28;21790;-76
2021/04/25 03:28:04;;;;;;;6.03;3.75;;;2.90;75.10;;;;;;4967858;28;20105;-76
2021/04/25 03:30:30;;;;;;;4.25;3.38;;;2.90;74.20;;;;;;4979308;28;20375;-76
2021/04/25 03:32:56;;;;;;;6.53;3.75;;;2.80;74.30;;;;;;4967817;28;20057;-76
2021/04/25 03:35:22;;;;;;;7.07;4.10;;;2.90;74.20;;;;;;4977394;28;20091;-76
2021/04/25 03:37:47;;;;;;;4.85;3.67;;;2.90;74.10;;;;;;4966353;28;20100;-76
2021/04/25 03:40:19;;;;;;;8.95;5.60;;;2.90;74.00;;;;;;4969079;28;20101;-75
2021/04/25 03:42:45;;;;;;;7.15;3.83;;;3.00;73.60;;;;;;4965828;28;20022;-76
2021/04/25 03:45:13;;;;;;;6.88;4.25;;;2.90;73.40;;;;;;4960135;28;20054;-76
2021/04/25 03:47:44;;;;;;;13.40;4.30;;;2.90;73.80;;;;;;4968430;28;20042;-76
2021/04/25 03:50:11;;;;;;;6.32;4.18;;;2.90;74.00;;;;;;4974542;28;20100;-75
2021/04/25 03:52:37;;;;;;;5.13;3.55;;;2.90;73.30;;;;;;4972930;28;20065;-77
2021/04/25 03:55:03;;;;;;;5.35;3.67;;;2.80;74.00;;;;;;4959071;28;20059;-76
2021/04/25 03:57:29;;;;;;;6.55;3.80;;;2.90;73.60;;;;;;4960451;28;20118;-76
2021/04/25 03:59:55;;;;;;;6.45;3.63;;;2.90;73.80;;;;;;4969863;28;20101;-77
2021/04/25 04:02:20;;;;;;;6.38;4.00;;;2.80;73.10;;;;;;4964469;28;20034;-75
2021/04/25 04:04:46;;;;;;;8.25;3.83;;;2.80;74.40;;;;;;4966376;28;20030;-75
2021/04/25 04:07:11;;;;;;;6.97;4.45;;;2.70;73.80;;;;;;4958402;28;20058;-76
2021/04/25 04:09:39;;;;;;;6.93;4.80;;;2.70;71.80;;;;;;4969375;28;20041;-76
2021/04/25 04:12:05;;;;;;;5.68;3.95;;;2.50;73.50;;;;;;4962915;28;20566;-76
2021/04/25 04:14:31;;;;;;;9.75;4.10;;;2.60;73.80;;;;;;4961695;28;20090;-76
2021/04/25 04:16:57;;;;;;;4.88;3.53;;;2.60;75.10;;;;;;4976559;28;20473;-76
2021/04/25 04:19:22;;;;;;;8.35;4.53;;;2.70;74.60;;;;;;4965516;28;20042;-76
2021/04/25 04:21:48;;;;;;;5.90;3.88;;;2.70;74.20;;;;;;4970313;28;20151;-76
2021/04/25 04:24:13;;;;;;;9.27;3.95;;;2.70;74.20;;;;;;4968319;28;20114;-75
2021/04/25 04:26:39;;;;;;;7.28;4.68;;;2.70;74.20;;;;;;4976597;28;20105;-76
2021/04/25 04:29:05;;;;;;;6.90;4.30;;;2.80;74.30;;;;;;4961916;28;20034;-76
2021/04/25 04:31:30;;;;;;;6.68;3.72;;;2.80;74.30;;;;;;4974092;28;20038;-77
2021/04/25 04:33:56;;;;;;;8.30;4.40;;;2.60;72.60;;;;;;4967385;28;20074;-76
2021/04/25 04:36:21;;;;;;;6.70;3.95;;;2.70;73.50;;;;;;4965518;28;20031;-76
2021/04/25 04:38:47;;;;;;;5.82;3.75;;;2.70;73.10;;;;;;4963743;28;20085;-76
2021/04/25 04:41:13;;;;;;;9.77;4.72;;;2.60;73.00;;;;;;4959916;28;20435;-77
2021/04/25 04:43:38;;;;;;;5.88;4.15;;;2.60;73.30;;;;;;4969006;28;20041;-76
2021/04/25 04:46:04;;;;;;;7.78;3.88;;;2.60;73.30;;;;;;4981156;28;20027;-77
2021/04/25 04:48:29;;;;;;;6.15;4.30;;;2.70;73.60;;;;;;4968340;28;20023;-77
2021/04/25 04:50:55;;;;;;;6.47;4.32;;;2.70;74.20;;;;;;4967007;28;20018;-77
2021/04/25 04:53:21;;;;;;;8.60;3.67;;;2.70;74.00;;;;;;4969243;28;20034;-76
2021/04/25 04:55:46;;;;;;;5.95;3.78;;;2.70;72.90;;;;;;4975450;28;20058;-76
2021/04/25 04:58:12;;;;;;;9.57;3.92;;;2.60;74.80;;;;;;4959835;28;20073;-77
2021/04/25 05:00:38;;;;;;;5.32;3.63;;;2.80;74.80;;;;;;4967897;28;20137;-76
2021/04/25 05:03:04;;;;;;;8.00;4.15;;;2.90;74.80;;;;;;4970252;28;20046;-76
2021/04/25 05:05:29;;;;;;;5.32;4.47;;;2.80;74.60;;;;;;4992756;28;20089;-76
2021/04/25 05:07:55;;;;;;;7.47;4.18;;;2.90;74.60;;;;;;4972056;28;20031;-77
2021/04/25 05:10:21;;;;;;;5.10;3.53;;;2.90;74.40;;;;;;4975739;28;20035;-77
2021/04/25 05:12:46;;;;;;;6.70;4.82;;;2.90;74.40;;;;;;4971202;28;20521;-76
2021/04/25 05:15:12;;;;;;;9.82;5.18;;;2.90;74.80;;;;;;4951042;28;20083;-76
2021/04/25 05:17:38;;;;;;;7.72;4.32;;;2.90;74.60;;;;;;4964282;28;20368;-77
2021/04/25 05:20:04;;;;;;;6.85;3.40;;;2.90;74.10;;;;;;4963331;28;20030;-77
2021/04/25 05:22:29;;;;;;;8.80;4.45;;;3.00;74.30;;;;;;4973969;28;20381;-77
2021/04/25 05:24:55;;;;;;;6.38;3.85;;;3.00;74.30;;;;;;4969416;28;20038;-76
2021/04/25 05:27:21;;;;;;;6.03;4.47;;;3.10;75.60;;;;;;4963389;28;20034;-76
2021/04/25 05:29:47;;;;;;;6.50;4.40;;;3.10;74.30;;;;;;4956555;28;20061;-76
2021/04/25 05:32:13;;;;;;;9.07;4.30;;;3.30;73.90;;;;;;4973659;28;20042;-76
2021/04/25 05:34:39;;;;;;;6.45;4.05;;;3.30;75.20;;;;;;4963262;28;20113;-76
2021/04/25 05:37:05;;;;;;;6.63;4.55;;;3.40;75.10;;;;;;4972253;28;20396;-77
2021/04/25 05:39:30;;;;;;;8.65;5.20;;;3.50;74.90;;;;;;4974626;28;20501;-77
2021/04/25 05:41:56;;;;;;;7.70;4.63;;;3.60;76.00;;;;;;4967949;28;20059;-77
2021/04/25 05:44:22;;;;;;;7.50;4.47;;;3.60;75.80;;;;;;4965888;28;20438;-77
2021/04/25 05:46:47;;;;;;;6.15;4.47;;;3.80;75.20;;;;;;4968271;28;20097;-75
2021/04/25 05:49:13;;;;;;;8.70;4.43;;;3.90;75.30;;;;;;4969795;28;20030;-76
2021/04/25 05:51:39;;;;;;;12.07;5.05;;;4.00;74.70;;;;;;4975120;28;20349;-76
2021/04/25 05:54:04;;;;;;;8.73;5.07;;;4.10;74.50;;;;;;4959884;28;20027;-75
2021/04/25 05:56:31;;;;;;;7.70;5.15;;;4.20;75.40;;;;;;4965497;28;20452;-76
2021/04/25 05:58:58;;;;;;;6.82;5.30;;;4.30;75.50;;;;;;4970593;28;20042;-77
2021/04/25 06:01:24;;;;;;;10.35;5.60;;;4.40;74.90;;;;;;4971247;28;20062;-77
2021/04/25 06:03:50;;;;;;;11.05;6.43;;;4.50;74.60;;;;;;4965221;28;20030;-75
2021/04/25 06:06:15;;;;;;;11.93;6.82;;;4.60;74.40;;;;;;4966308;28;20053;-76
2021/04/25 06:08:42;;;;;;;11.13;5.20;;;4.70;73.50;;;;;;4963534;28;20023;-76
2021/04/25 06:11:08;;;;;;;8.13;5.45;;;4.80;73.70;;;;;;4965710;28;20034;-76
2021/04/25 06:13:34;;;;;;;8.85;5.55;;;4.90;73.50;;;;;;4972657;28;20027;-76
2021/04/25 06:15:59;;;;;;;10.93;5.40;;;5.00;73.60;;;;;;4970791;28;20035;-76
2021/04/25 06:18:25;;;;;;;8.02;5.28;;;5.10;73.80;;;;;;4963104;28;20518;-75
2021/04/25 06:20:51;;;;;;;9.40;5.55;;;5.20;72.80;;;;;;4974169;28;20049;-75
2021/04/25 06:23:16;;;;;;;10.65;6.53;;;5.40;72.80;;;;;;4967484;28;20043;-75
2021/04/25 06:25:42;;;;;;;12.35;6.55;;;5.50;72.20;;;;;;4957020;28;20143;-75
2021/04/25 06:28:08;;;;;;;12.82;8.02;;;5.70;72.60;;;;;;4961602;28;20070;-76
2021/04/25 06:30:33;;;;;;;13.80;7.95;;;5.90;71.60;;;;;;4966090;28;20398;-77
2021/04/25 06:32:59;;;;;;;16.25;9.73;;;6.00;73.30;;;;;;4964243;28;20047;-76
2021/04/25 06:35:25;;;;;;;15.60;8.70;;;6.20;71.60;;;;;;4961754;28;20101;-77
2021/04/25 06:37:50;;;;;;;15.07;9.48;;;6.30;73.50;;;;;;4966364;28;20485;-76
2021/04/25 06:40:17;;;;;;;18.50;9.63;;;6.50;73.60;;;;;;4971345;28;20509;-77
2021/04/25 06:42:43;;;;;;;18.65;10.90;;;6.60;72.50;;;;;;4962222;28;20392;-77
2021/04/25 06:45:12;;;;;;;21.90;10.65;;;6.70;72.10;;;;;;4967697;28;20045;-77
2021/04/25 06:47:39;;;;;;;23.88;11.63;;;6.80;71.90;;;;;;4964325;28;20061;-75
2021/04/25 06:50:08;;;;;;;18.08;10.30;;;6.90;72.90;;;;;;4967923;28;20402;-76
2021/04/25 06:52:34;;;;;;;20.38;10.30;;;7.00;72.80;;;;;;4966463;28;20151;-76
2021/04/25 06:54:59;;;;;;;19.67;11.30;;;7.10;71.80;;;;;;4969459;28;20381;-75
2021/04/25 06:57:27;;;;;;;21.30;11.23;;;7.30;72.00;;;;;;4970069;28;20034;-76
2021/04/25 06:59:53;;;;;;;17.77;11.00;;;7.30;71.40;;;;;;4957552;28;20103;-77
2021/04/25 07:02:18;;;;;;;19.80;11.40;;;7.40;71.00;;;;;;4971099;28;20042;-76
2021/04/25 07:04:44;;;;;;;20.63;10.80;;;7.50;70.80;;;;;;4963285;28;20144;-77
2021/04/25 07:07:10;;;;;;;19.63;10.95;;;7.60;69.80;;;;;;4962955;28;20069;-75
2021/04/25 07:09:35;;;;;;;19.85;11.25;;;7.60;69.40;;;;;;4970056;28;20113;-76
2021/04/25 07:12:01;;;;;;;20.02;10.88;;;7.80;71.00;;;;;;4980496;28;20402;-75
2021/04/25 07:14:27;;;;;;;20.13;10.38;;;7.80;68.90;;;;;;4976895;28;20400;-76
2021/04/25 07:16:52;;;;;;;19.67;10.80;;;7.80;69.40;;;;;;4977927;28;20473;-75
2021/04/25 07:19:18;;;;;;;18.17;10.90;;;7.90;69.20;;;;;;4962339;28;20031;-76
2021/04/25 07:21:43;;;;;;;18.70;11.38;;;8.00;71.60;;;;;;4968753;28;20137;-76
2021/04/25 07:24:09;;;;;;;19.02;10.57;;;8.00;67.20;;;;;;4974250;28;20116;-76
2021/04/25 07:26:35;;;;;;;15.48;9.80;;;8.10;69.30;;;;;;4959440;28;20058;-76
2021/04/25 07:29:00;;;;;;;20.38;10.68;;;8.20;67.20;;;;;;4963577;28;20054;-76
2021/04/25 07:31:27;;;;;;;17.55;11.10;;;8.20;68.40;;;;;;4965457;28;20149;-76
2021/04/25 07:33:52;;;;;;;17.05;10.07;;;8.30;68.70;;;;;;4958029;28;20053;-77
2021/04/25 07:36:18;;;;;;;20.80;11.95;;;8.40;67.90;;;;;;4966079;28;20027;-77
2021/04/25 07:38:43;;;;;;;18.48;10.38;;;8.40;67.70;;;;;;4957045;28;20082;-76
2021/04/25 07:41:11;;;;;;;17.27;9.80;;;8.60;66.60;;;;;;4955893;28;20486;-76
2021/04/25 07:43:37;;;;;;;16.02;10.15;;;8.60;65.00;;;;;;4957201;28;20031;-76
2021/04/25 07:46:02;;;;;;;19.80;10.77;;;8.70;65.70;;;;;;4954867;28;20038;-78
2021/04/25 07:48:28;;;;;;;20.85;10.60;;;8.70;66.40;;;;;;4960753;28;20027;-75
2021/04/25 07:50:54;;;;;;;21.80;11.18;;;8.90;65.80;;;;;;4955674;28;20058;-75
2021/04/25 07:53:19;;;;;;;18.30;11.20;;;8.90;66.90;;;;;;4954665;28;20026;-76
2021/04/25 07:55:45;;;;;;;15.27;10.35;;;9.10;64.80;;;;;;4955521;28;20027;-76
2021/04/25 07:58:11;;;;;;;22.60;11.70;;;9.10;63.90;;;;;;4956454;28;20114;-75
2021/04/25 08:00:37;;;;;;;19.73;10.68;;;9.20;66.00;;;;;;4960730;28;20047;-76
2021/04/25 08:03:04;;;;;;;15.18;9.90;;;9.30;65.00;;;;;;4959392;28;20055;-76
2021/04/25 08:05:29;;;;;;;18.40;10.73;;;9.30;63.60;;;;;;4963092;28;20063;-76
2021/04/25 08:07:55;;;;;;;19.20;10.32;;;9.40;63.60;;;;;;4963260;28;20131;-76
2021/04/25 08:10:21;;;;;;;21.98;10.88;;;9.60;63.50;;;;;;4964497;28;20019;-75
2021/04/25 08:12:47;;;;;;;16.60;9.98;;;9.60;65.10;;;;;;4968200;28;20037;-75
2021/04/25 08:15:13;;;;;;;18.67;9.63;;;9.70;65.10;;;;;;4958660;28;20058;-75
2021/04/25 08:17:38;;;;;;;18.60;10.63;;;9.80;63.40;;;;;;4968477;28;20038;-76
2021/04/25 08:20:05;;;;;;;17.50;10.23;;;9.90;63.10;;;;;;4962471;28;20035;-75
2021/04/25 08:22:31;;;;;;;16.75;9.38;;;9.90;62.50;;;;;;4964068;28;20031;-75
2021/04/25 08:24:57;;;;;;;21.50;10.73;;;10.00;61.50;;;;;;4961060;28;20027;-75
2021/04/25 08:27:22;;;;;;;15.60;9.57;;;10.10;61.50;;;;;;4959177;28;20547;-74
2021/04/25 08:29:48;;;;;;;18.17;10.27;;;10.30;61.60;;;;;;4962463;28;20032;-75
2021/04/25 08:32:14;;;;;;;17.50;9.90;;;10.40;63.30;;;;;;4960823;28;20909;-75
2021/04/25 08:34:40;;;;;;;15.90;9.30;;;10.40;60.40;;;;;;4959787;28;20049;-74
2021/04/25 08:37:05;;;;;;;16.35;9.30;;;10.40;60.70;;;;;;4960720;28;20027;-74
2021/04/25 08:39:31;;;;;;;14.90;7.75;;;10.50;59.60;;;;;;4952393;28;20055;-75
2021/04/25 08:41:57;;;;;;;18.08;8.98;;;10.80;61.80;;;;;;4958724;28;20038;-75
2021/04/25 08:44:24;;;;;;;14.50;8.85;;;10.90;59.90;;;;;;4961085;28;20038;-75
2021/04/25 08:46:51;;;;;;;15.02;8.68;;;11.10;60.40;;;;;;4959191;28;20023;-75
2021/04/25 08:49:21;;;;;;;15.55;9.23;;;11.10;58.90;;;;;;4955677;28;20252;-75
2021/04/25 08:51:48;;;;;;;12.50;7.80;;;11.10;59.20;;;;;;4959042;28;20030;-76
2021/04/25 08:54:14;;;;;;;14.73;8.75;;;11.20;58.50;;;;;;4955569;28;20072;-75
2021/04/25 08:56:40;;;;;;;16.65;9.52;;;11.20;57.70;;;;;;4976251;28;20461;-75
2021/04/25 08:59:06;;;;;;;15.07;8.48;;;11.30;58.70;;;;;;4962486;28;20038;-75
2021/04/25 09:01:32;;;;;;;16.77;8.60;;;11.40;60.30;;;;;;4960605;28;20047;-75
2021/04/25 09:03:57;;;;;;;13.02;7.97;;;11.50;58.00;;;;;;4962171;28;20023;-75
2021/04/25 09:06:23;;;;;;;15.38;8.35;;;11.50;56.80;;;;;;4960349;28;20584;-75
2021/04/25 09:08:56;;;;;;;13.38;8.18;;;11.40;57.40;;;;;;4958951;28;20030;-75
2021/04/25 09:11:35;;;;;;;14.43;8.52;;;11.50;59.00;;;;;;4961183;28;20021;-75
2021/04/25 09:14:16;;;;;;;13.52;7.57;;;11.70;57.70;;;;;;4951039;28;20037;-75
2021/04/25 09:16:45;;;;;;;17.80;8.50;;;11.70;56.00;;;;;;4955289;28;20038;-75
2021/04/25 09:19:11;;;;;;;14.98;8.63;;;11.70;55.90;;;;;;4960145;28;20039;-76
2021/04/25 09:22:00;;;;;;;13.70;8.02;;;11.80;57.60;;;;;;4957309;28;20026;-76
2021/04/25 09:24:30;;;;;;;16.48;8.00;;;11.80;53.60;;;;;;4957040;28;20113;-75
2021/04/25 09:26:57;;;;;;;15.50;8.15;;;11.80;54.30;;;;;;4953444;28;20063;-75
2021/04/25 09:29:25;;;;;;;15.00;8.43;;;12.00;56.20;;;;;;4964314;28;20138;-75
2021/04/25 09:31:53;;;;;;;14.10;8.50;;;12.00;56.30;;;;;;4959347;28;20090;-76
2021/04/25 09:34:26;;;;;;;14.52;8.55;;;12.20;56.90;;;;;;4956133;28;20039;-75
2021/04/25 09:36:52;;;;;;;17.80;8.60;;;12.20;56.60;;;;;;4961513;28;20339;-76
2021/04/25 09:39:18;;;;;;;12.85;7.55;;;12.40;57.40;;;;;;4957557;28;20042;-77
2021/04/25 09:41:46;;;;;;;14.50;8.52;;;12.30;56.90;;;;;;4956238;28;20035;-75
2021/04/25 09:44:31;;;;;;;9.80;6.97;;;12.30;55.80;;;;;;4956190;28;20088;-75
2021/04/25 09:47:00;;;;;;;12.73;7.75;;;12.40;54.30;;;;;;4957586;28;20310;-76
2021/04/25 09:49:39;;;;;;;12.13;7.68;;;12.50;55.40;;;;;;4954496;28;20019;-76
2021/04/25 09:52:07;;;;;;;16.35;8.18;;;12.40;52.80;;;;;;4955006;28;20094;-75
2021/04/25 09:54:33;;;;;;;12.70;8.35;;;12.50;56.30;;;;;;4959341;28;20509;-76
2021/04/25 09:56:59;;;;;;;12.38;7.00;;;12.60;57.90;;;;;;4958754;28;20129;-76
2021/04/25 09:59:24;;;;;;;13.32;7.53;;;12.50;55.40;;;;;;4955728;28;20019;-76
2021/04/25 10:02:08;;;;;;;13.98;8.15;;;12.60;56.10;;;;;;4957841;28;20046;-76
2021/04/25 10:04:37;;;;;;;12.38;8.20;;;12.60;57.00;;;;;;4955388;28;20081;-75
2021/04/25 10:07:07;;;;;;;13.63;7.90;;;12.60;55.90;;;;;;4965737;28;20023;-75
2021/04/25 10:09:34;;;;;;;14.27;7.57;;;12.70;55.30;;;;;;4952999;28;20087;-76
2021/04/25 10:12:02;;;;;;;14.02;7.75;;;12.70;54.10;;;;;;4974733;28;20031;-75
2021/04/25 10:14:30;;;;;;;15.65;8.48;;;12.80;56.90;;;;;;4959020;28;20045;-75
2021/04/25 10:16:57;;;;;;;16.00;8.05;;;12.80;53.70;;;;;;4968979;28;20494;-75
2021/04/25 10:19:22;;;;;;;14.00;8.20;;;12.90;58.10;;;;;;4971229;28;20026;-75
2021/04/25 10:21:48;;;;;;;13.98;7.78;;;12.80;53.50;;;;;;4964229;28;20038;-76
2021/04/25 10:24:19;;;;;;;13.77;9.25;;;12.70;53.30;;;;;;4964561;28;20042;-75
2021/04/25 10:27:07;;;;;;;14.88;8.30;;;12.90;54.00;;;;;;4957825;28;20058;-75
2021/04/25 10:29:52;;;;;;;12.05;8.30;;;12.90;55.20;;;;;;4958882;28;20055;-75
2021/04/25 10:32:20;;;;;;;12.90;7.82;;;12.90;54.40;;;;;;4960616;28;20126;-76
2021/04/25 10:34:50;;;;;;;20.35;8.75;;;12.80;52.80;;;;;;4963123;28;20026;-75
2021/04/25 10:37:16;;;;;;;12.43;7.13;;;12.90;53.80;;;;;;4978189;28;20147;-75
2021/04/25 10:39:55;;;;;;;14.13;7.53;;;13.00;50.30;;;;;;4958059;28;20460;-76
2021/04/25 10:42:21;;;;;;;;;;;13.00;52.00;;;;;;4959967;28;20026;-76
2021/04/25 10:45:03;;;;;;;10.55;6.45;;;13.10;52.20;;;;;;4963161;28;19924;-76
2021/04/25 10:47:39;;;;;;;11.77;6.13;;;13.20;52.60;;;;;;4959438;28;20030;-76
2021/04/25 10:50:17;;;;;;;9.23;6.03;;;13.40;54.40;;;;;;4973498;28;20031;-76
2021/04/25 10:53:03;;;;;;;11.02;4.95;;;13.40;51.20;;;;;;4963325;28;20042;-76
2021/04/25 10:55:31;;;;;;;8.77;4.85;;;13.40;48.00;;;;;;4960300;28;20442;-75
2021/04/25 10:57:57;;;;;;;10.48;5.18;;;13.40;49.00;;;;;;4960035;28;20316;-75
2021/04/25 11:03:08;;;;;;;8.75;5.55;;;13.50;47.90;;;;;;4952373;28;20031;-76
2021/04/25 11:08:03;;;;;;;;;;;13.60;48.00;;;;;;4961822;28;20141;-77
2021/04/25 11:10:51;;;;;;;10.27;5.72;;;13.70;45.80;;;;;;4956979;28;19925;-76
2021/04/25 11:16:10;;;;;;;7.65;5.32;;;13.70;48.30;;;;;;4962521;28;20041;-75
2021/04/25 11:18:54;;;;;;;9.90;6.05;;;13.70;49.10;;;;;;4960285;28;20066;-76
2021/04/25 11:21:28;;;;;;;10.50;5.68;;;13.70;46.80;;;;;;4967163;28;20081;-76
2021/04/25 11:23:58;;;;;;;11.55;6.28;;;13.60;49.90;;;;;;4961803;28;20030;-76
2021/04/25 11:26:36;;;;;;;14.60;6.75;;;13.60;49.50;;;;;;4956346;28;20109;-76
2021/04/25 11:29:03;;;;;;;10.55;5.68;;;13.80;52.70;;;;;;4958772;28;20019;-76
2021/04/25 11:31:47;;;;;;;9.15;6.05;;;13.80;47.10;;;;;;4977877;28;20027;-75
2021/04/25 11:34:34;;;;;;;12.25;6.10;;;13.70;47.60;;;;;;4960710;28;20110;-75
2021/04/25 11:37:18;;;;;;;9.18;5.60;;;13.70;47.90;;;;;;4957438;28;20027;-75
2021/04/25 11:40:06;;;;;;;10.13;5.53;;;13.70;45.00;;;;;;4955003;28;20023;-77
2021/04/25 11:42:47;;;;;;;10.60;5.72;;;13.70;46.10;;;;;;4957451;28;20050;-75
2021/04/25 11:45:25;;;;;;;9.65;5.38;;;13.60;43.50;;;;;;4960500;28;20517;-76
2021/04/25 11:47:50;;;;;;;12.13;5.70;;;13.60;45.20;;;;;;4961891;28;20035;-76
2021/04/25 11:50:18;;;;;;;10.45;6.00;;;13.70;45.60;;;;;;4960612;28;20380;-75
2021/04/25 11:52:44;;;;;;;10.68;5.85;;;13.80;46.00;;;;;;4963992;28;20103;-76
2021/04/25 11:55:11;;;;;;;9.18;5.82;;;13.80;43.80;;;;;;4958380;28;20027;-77
2021/04/25 11:57:39;;;;;;;9.13;5.38;;;13.80;45.00;;;;;;4958736;28;20532;-75
2021/04/25 12:00:40;;;;;;;9.48;6.18;;;14.00;45.80;;;;;;4956296;28;20081;-77
2021/04/25 12:03:06;;;;;;;9.52;5.80;;;13.90;43.10;;;;;;4951474;28;20039;-76
2021/04/25 12:05:33;;;;;;;9.32;4.85;;;13.90;43.80;;;;;;4962143;28;20029;-76
2021/04/25 12:08:05;;;;;;;10.93;5.70;;;14.00;45.40;;;;;;4958134;28;21314;-76
2021/04/25 12:10:42;;;;;;;10.30;6.05;;;14.10;47.40;;;;;;4959583;28;20035;-76
2021/04/25 12:13:09;;;;;;;9.07;5.78;;;14.10;44.00;;;;;;4961431;28;20035;-76
2021/04/25 12:15:57;;;;;;;9.45;6.00;;;14.00;46.30;;;;;;4954700;28;20397;-77
2021/04/25 12:18:36;;;;;;;;;;;14.10;45.40;;;;;;4974593;28;20054;-76
2021/04/25 12:21:05;;;;;;;;;;;14.10;45.80;;;;;;4963285;28;19969;-76
2021/04/25 12:23:37;;;;;;;10.32;5.18;;;14.30;48.40;;;;;;4962751;28;19918;-76
2021/04/25 12:26:07;;;;;;;9.73;5.40;;;14.30;45.80;;;;;;4961311;28;20023;-77
2021/04/25 12:28:42;;;;;;;10.60;5.68;;;14.40;45.20;;;;;;4963706;28;20073;-76
2021/04/25 12:31:09;;;;;;;7.78;4.97;;;14.30;46.40;;;;;;4960873;28;20106;-76
2021/04/25 12:33:44;;;;;;;8.02;4.63;;;14.50;47.70;;;;;;4958099;28;20033;-76
2021/04/25 12:36:12;;;;;;;6.82;4.13;;;14.50;47.10;;;;;;4956901;28;20038;-76
2021/04/25 12:38:39;;;;;;;9.27;4.90;;;14.50;42.90;;;;;;4961860;28;20037;-76
2021/04/25 12:41:15;;;;;;;7.40;4.93;;;14.50;41.20;;;;;;4957688;28;20066;-76
2021/04/25 12:43:46;;;;;;;7.50;4.13;;;14.50;41.30;;;;;;4959449;28;20589;-76
2021/04/25 12:46:27;;;;;;;6.72;4.50;;;14.40;43.70;;;;;;4961701;28;20035;-76
2021/04/25 12:48:57;;;;;;;7.32;3.78;;;14.50;45.10;;;;;;4962521;28;20029;-76
2021/04/25 12:51:29;;;;;;;5.60;4.10;;;14.50;43.10;;;;;;4959532;28;20039;-75
2021/04/25 12:53:59;;;;;;;5.32;3.60;;;14.40;42.50;;;;;;4961007;28;20034;-76
2021/04/25 12:56:25;;;;;;;6.88;3.63;;;14.50;41.40;;;;;;4960165;28;20054;-76
2021/04/25 12:59:12;;;;;;;6.15;3.53;;;14.50;40.00;;;;;;4958467;28;20402;-76